createdAt,value
2019-04-30T00:02:22.483Z,34.90
2019-04-30T00:04:50.029Z,32.77
2019-04-30T00:07:19.035Z,33.90
2019-04-30T00:09:49.350Z,31.93
2019-04-30T00:12:15.735Z,32.20
2019-04-30T00:14:44.810Z,35.27
2019-04-30T00:17:15.959Z,34.27
2019-04-30T00:19:40.572Z,34.73
2019-04-30T00:22:07.481Z,35.50
2019-04-30T00:24:35.482Z,32.90
2019-04-30T00:27:02.512Z,34.70
2019-04-30T00:29:30.999Z,34.20
2019-04-30T00:32:04.600Z,33.83
2019-04-30T00:34:30.918Z,32.47
2019-04-30T00:36:56.084Z,33.77
2019-04-30T00:39:23.090Z,32.40
2019-04-30T00:41:50.004Z,32.17
2019-04-30T00:44:19.854Z,32.97
2019-04-30T00:46:47.939Z,35.10
2019-04-30T00:49:18.381Z,34.27
2019-04-30T00:51:45.290Z,32.33
2019-04-30T00:54:12.447Z,33.33
2019-04-30T00:56:39.358Z,33.70
2019-04-30T00:59:10.333Z,31.43
2019-04-30T01:01:53.790Z,31.50
2019-04-30T01:04:28.096Z,31.90
2019-04-30T01:06:59.907Z,33.97
2019-04-30T01:09:25.609Z,31.40
2019-04-30T01:11:52.513Z,29.43
2019-04-30T01:14:23.190Z,32.60
2019-04-30T01:16:49.413Z,29.17
2019-04-30T01:19:27.625Z,30.97
2019-04-30T01:21:47.126Z,31.57
2019-04-30T01:24:14.338Z,30.33
2019-04-30T01:26:41.458Z,30.07
2019-04-30T01:29:10.194Z,29.53
2019-04-30T01:31:40.621Z,31.03
2019-04-30T01:34:10.331Z,28.80
2019-04-30T01:36:34.873Z,29.87
2019-04-30T01:39:01.803Z,30.47
2019-04-30T01:41:31.387Z,30.40
2019-04-30T01:43:58.524Z,29.00
2019-04-30T01:46:25.577Z,29.60
2019-04-30T01:48:52.487Z,30.93
2019-04-30T01:51:21.789Z,28.50
2019-04-30T01:53:48.528Z,31.50
2019-04-30T01:56:31.720Z,30.47
2019-04-30T01:59:02.847Z,30.70
2019-04-30T02:01:31.171Z,30.53
2019-04-30T02:03:58.577Z,31.07
2019-04-30T02:06:25.643Z,30.77
2019-04-30T02:08:52.570Z,30.97
2019-04-30T02:11:19.511Z,29.00
2019-04-30T02:13:46.577Z,28.70
2019-04-30T02:16:13.511Z,29.57
2019-04-30T02:18:40.816Z,29.03
2019-04-30T02:21:08.948Z,30.57
2019-04-30T02:23:36.571Z,30.23
2019-04-30T02:26:03.500Z,31.57
2019-04-30T02:28:30.411Z,30.40
2019-04-30T02:30:59.907Z,29.30
2019-04-30T02:33:27.046Z,29.27
2019-04-30T02:36:22.769Z,31.20
2019-04-30T02:38:51.961Z,28.90
2019-04-30T02:41:19.647Z,29.40
2019-04-30T02:43:49.989Z,28.97
2019-04-30T02:46:19.226Z,29.13
2019-04-30T02:48:50.447Z,28.27
2019-04-30T02:51:20.093Z,29.23
2019-04-30T02:54:23.976Z,28.23
2019-04-30T02:57:11.766Z,30.10
2019-04-30T03:00:00.019Z,29.97
2019-04-30T03:02:29.189Z,27.67
2019-04-30T03:04:56.290Z,31.13
2019-04-30T03:07:23.304Z,29.37
2019-04-30T03:09:50.197Z,30.27
2019-04-30T03:12:17.163Z,30.13
2019-04-30T03:14:44.084Z,31.20
2019-04-30T03:17:21.050Z,28.17
2019-04-30T03:19:53.563Z,31.40
2019-04-30T03:22:23.380Z,31.10
2019-04-30T03:24:50.383Z,30.77
2019-04-30T03:27:17.342Z,31.70
2019-04-30T03:29:44.264Z,29.77
2019-04-30T03:32:13.323Z,30.37
2019-04-30T03:34:42.058Z,32.27
2019-04-30T03:37:09.946Z,31.43
2019-04-30T03:39:39.687Z,31.40
2019-04-30T03:42:05.917Z,30.77
2019-04-30T03:44:32.935Z,30.60
2019-04-30T03:46:59.877Z,31.73
2019-04-30T03:49:26.815Z,31.77
2019-04-30T03:51:53.770Z,31.27
2019-04-30T03:54:20.691Z,31.07
2019-04-30T03:56:50.202Z,30.13
2019-04-30T03:59:19.705Z,31.17
2019-04-30T04:02:12.282Z,28.43
2019-04-30T04:04:41.687Z,30.67
2019-04-30T04:07:20.327Z,29.50
2019-04-30T04:09:54.388Z,30.27
2019-04-30T04:12:21.497Z,29.73
2019-04-30T04:14:50.845Z,28.70
2019-04-30T04:17:20.087Z,31.67
2019-04-30T04:19:49.476Z,30.10
2019-04-30T04:22:20.318Z,28.97
2019-04-30T04:24:46.050Z,28.43
2019-04-30T04:27:12.985Z,29.40
2019-04-30T04:29:40.437Z,28.13
2019-04-30T04:32:10.422Z,30.77
2019-04-30T04:34:36.298Z,28.87
2019-04-30T04:37:03.261Z,31.47
2019-04-30T04:39:30.180Z,30.10
2019-04-30T04:41:59.799Z,30.80
2019-04-30T04:44:25.979Z,29.67
2019-04-30T04:46:53.016Z,30.57
2019-04-30T04:49:20.589Z,28.77
2019-04-30T04:51:49.276Z,29.57
2019-04-30T04:54:16.520Z,27.20
2019-04-30T04:56:43.470Z,28.30
2019-04-30T04:59:10.496Z,28.77
2019-04-30T05:01:38.754Z,28.60
2019-04-30T05:04:05.850Z,28.50
2019-04-30T05:06:32.807Z,28.47
2019-04-30T05:09:01.697Z,29.40
2019-04-30T05:11:29.321Z,27.33
2019-04-30T05:13:58.940Z,28.33
2019-04-30T05:16:26.087Z,29.30
2019-04-30T05:18:53.053Z,29.17
2019-04-30T05:21:19.986Z,28.97
2019-04-30T05:23:46.935Z,28.00
2019-04-30T05:26:13.869Z,28.13
2019-04-30T05:28:40.823Z,28.97
2019-04-30T05:31:08.747Z,29.50
2019-04-30T05:33:35.808Z,30.37
2019-04-30T05:36:02.759Z,31.57
2019-04-30T05:38:31.312Z,31.93
2019-04-30T05:40:59.582Z,28.90
2019-04-30T05:43:26.617Z,34.20
2019-04-30T05:45:53.536Z,32.20
2019-04-30T05:48:20.478Z,32.53
2019-04-30T05:50:51.491Z,33.00
2019-04-30T05:53:16.271Z,35.10
2019-04-30T05:55:43.191Z,31.67
2019-04-30T05:58:10.138Z,32.30
2019-04-30T06:00:37.063Z,32.63
2019-04-30T06:03:04.002Z,30.70
2019-04-30T06:05:30.929Z,34.70
2019-04-30T06:07:59.337Z,32.27
2019-04-30T06:10:33.638Z,30.23
2019-04-30T06:13:10.765Z,29.37
2019-04-30T06:15:45.697Z,30.67
2019-04-30T06:18:13.969Z,30.80
2019-04-30T06:20:41.055Z,27.90
2019-04-30T06:23:09.511Z,29.23
2019-04-30T06:25:55.558Z,28.67
2019-04-30T06:28:06.314Z,29.30
2019-04-30T06:30:33.730Z,27.40
2019-04-30T06:33:01.396Z,28.93
2019-04-30T06:35:29.444Z,29.33
2019-04-30T06:37:58.783Z,28.73
2019-04-30T06:40:25.455Z,29.43
2019-04-30T06:42:52.517Z,27.87
2019-04-30T06:45:19.439Z,29.00
2019-04-30T06:47:48.928Z,28.20
2019-04-30T06:50:16.213Z,28.30
2019-04-30T06:52:54.211Z,30.00
2019-04-30T06:55:12.340Z,31.67
2019-04-30T06:57:39.258Z,31.40
2019-04-30T07:00:06.617Z,30.43
2019-04-30T07:02:33.559Z,27.50
2019-04-30T07:05:00.515Z,27.43
2019-04-30T07:07:37.087Z,28.10
2019-04-30T07:10:02.739Z,28.00
2019-04-30T07:12:55.002Z,27.30
2019-04-30T07:15:21.965Z,29.93
2019-04-30T07:17:49.262Z,30.00
2019-04-30T07:20:16.354Z,27.77
2019-04-30T07:22:49.669Z,28.80
2019-04-30T07:25:12.149Z,28.80
2019-04-30T07:27:40.079Z,29.67
2019-04-30T07:30:09.763Z,28.70
2019-04-30T07:32:36.353Z,31.50
2019-04-30T07:35:03.659Z,29.27
2019-04-30T07:37:30.599Z,29.83
2019-04-30T07:39:58.886Z,28.93
2019-04-30T07:42:25.962Z,28.57
2019-04-30T07:44:53.096Z,29.23
2019-04-30T07:47:20.003Z,27.03
2019-04-30T07:52:16.554Z,32.40
2019-04-30T07:54:43.838Z,30.20
2019-04-30T07:57:10.759Z,29.47
2019-04-30T07:59:39.686Z,30.07
2019-04-30T08:02:12.242Z,27.80
2019-04-30T08:04:53.389Z,31.53
2019-04-30T08:07:20.713Z,30.80
2019-04-30T08:09:35.522Z,29.00
2019-04-30T08:09:49.316Z,31.53
2019-04-30T08:12:25.086Z,32.50
2019-04-30T08:14:45.263Z,34.67
2019-04-30T08:17:13.165Z,36.20
2019-04-30T08:19:41.116Z,35.37
2019-04-30T08:22:09.587Z,38.13
2019-04-30T08:24:36.663Z,32.27
2019-04-30T08:27:03.664Z,34.57
2019-04-30T08:29:30.639Z,30.20
2019-04-30T08:31:59.309Z,32.67
2019-04-30T08:34:26.436Z,30.27
2019-04-30T08:36:53.405Z,32.23
2019-04-30T08:39:20.330Z,30.80
2019-04-30T08:41:49.225Z,29.93
2019-04-30T08:44:16.109Z,28.40
2019-04-30T08:46:43.042Z,28.93
2019-04-30T08:49:10.316Z,29.23
2019-04-30T08:51:38.785Z,27.27
2019-04-30T08:54:06.239Z,28.10
2019-04-30T08:56:33.183Z,25.87
2019-04-30T08:59:00.100Z,26.30
2019-04-30T09:01:29.211Z,28.77
2019-04-30T09:03:55.878Z,28.10
2019-04-30T09:06:25.481Z,26.73
2019-04-30T09:08:55.080Z,27.00
2019-04-30T09:11:28.338Z,25.23
2019-04-30T09:13:50.842Z,27.07
2019-04-30T09:16:19.455Z,27.80
2019-04-30T09:18:46.501Z,26.50
2019-04-30T09:21:13.456Z,25.43
2019-04-30T09:23:49.454Z,27.00
2019-04-30T09:26:09.227Z,24.23
2019-04-30T09:28:36.141Z,24.03
2019-04-30T09:31:03.196Z,24.33
2019-04-30T09:33:30.196Z,22.53
2019-04-30T09:35:57.170Z,23.43
2019-04-30T09:38:24.092Z,23.63
2019-04-30T09:40:51.031Z,22.13
2019-04-30T09:43:18.790Z,24.30
2019-04-30T09:45:45.925Z,19.40
2019-04-30T09:48:12.851Z,21.10
2019-04-30T09:50:39.906Z,20.07
2019-04-30T09:53:07.191Z,21.33
2019-04-30T09:55:34.280Z,22.50
2019-04-30T09:58:01.201Z,21.73
2019-04-30T10:00:29.554Z,22.47
2019-04-30T10:02:59.856Z,22.33
2019-04-30T10:05:29.053Z,21.77
2019-04-30T10:07:56.090Z,22.00
2019-04-30T10:10:28.929Z,19.73
2019-04-30T10:12:56.089Z,20.43
2019-04-30T10:15:42.724Z,21.10
2019-04-30T10:18:09.685Z,19.47
2019-04-30T10:20:48.413Z,19.03
2019-04-30T10:23:15.344Z,18.13
2019-04-30T10:25:42.423Z,17.47
2019-04-30T10:28:10.032Z,17.90
2019-04-30T10:30:37.331Z,18.47
2019-04-30T10:33:05.317Z,18.33
2019-04-30T10:35:32.572Z,19.30
2019-04-30T10:37:59.674Z,17.23
2019-04-30T10:40:28.572Z,18.40
2019-04-30T10:42:55.523Z,18.37
2019-04-30T10:45:22.453Z,18.93
2019-04-30T10:47:49.445Z,19.97
2019-04-30T10:50:16.497Z,18.30
2019-04-30T10:52:43.454Z,19.40
2019-04-30T10:55:10.587Z,20.17
2019-04-30T10:57:39.525Z,18.40
2019-04-30T11:00:11.252Z,17.77
2019-04-30T11:02:38.693Z,17.27
2019-04-30T11:05:05.924Z,17.57
2019-04-30T11:07:33.557Z,17.80
2019-04-30T11:10:00.483Z,18.83
2019-04-30T11:12:29.077Z,18.07
2019-04-30T11:14:56.261Z,18.07
2019-04-30T11:17:23.440Z,16.83
2019-04-30T11:19:50.849Z,17.67
2019-04-30T11:22:18.018Z,19.30
2019-04-30T11:24:56.663Z,17.10
2019-04-30T11:27:14.469Z,15.33
2019-04-30T11:29:42.054Z,16.33
2019-04-30T11:32:18.333Z,18.40
2019-04-30T11:34:45.437Z,18.03
2019-04-30T11:37:12.537Z,16.80
2019-04-30T11:39:39.619Z,18.87
2019-04-30T11:42:06.610Z,17.93
2019-04-30T11:44:33.552Z,18.10
2019-04-30T11:47:25.077Z,16.87
2019-04-30T11:49:52.236Z,19.20
2019-04-30T11:52:19.202Z,20.67
2019-04-30T11:54:51.347Z,19.70
2019-04-30T11:57:15.022Z,20.73
2019-04-30T12:00:00.399Z,19.70
2019-04-30T12:02:56.613Z,19.37
2019-04-30T12:05:23.556Z,16.20
2019-04-30T12:08:09.567Z,17.00
2019-04-30T12:10:58.409Z,18.57
2019-04-30T12:13:26.595Z,17.77
2019-04-30T12:15:54.254Z,18.40
2019-04-30T12:18:21.314Z,17.37
2019-04-30T12:20:48.277Z,15.93
2019-04-30T12:23:16.311Z,15.63
2019-04-30T12:25:43.234Z,17.10
2019-04-30T12:28:10.186Z,17.87
2019-04-30T12:30:39.060Z,15.53
2019-04-30T12:33:06.036Z,17.90
2019-04-30T12:35:33.010Z,17.67
2019-04-30T12:37:59.987Z,16.40
2019-04-30T12:40:30.098Z,16.90
2019-04-30T12:42:55.747Z,16.73
2019-04-30T12:45:22.759Z,15.80
2019-04-30T12:47:54.320Z,13.83
2019-04-30T12:50:26.598Z,14.10
2019-04-30T12:52:59.459Z,11.97
2019-04-30T12:55:51.993Z,11.87
2019-04-30T12:58:20.700Z,12.20
2019-04-30T13:00:49.156Z,13.30
2019-04-30T13:03:16.199Z,12.57
2019-04-30T13:05:43.296Z,11.80
2019-04-30T13:08:11.025Z,12.73
2019-04-30T13:10:38.940Z,12.07
2019-04-30T13:13:06.811Z,10.77
2019-04-30T13:15:34.234Z,11.80
2019-04-30T13:18:01.198Z,13.37
2019-04-30T13:20:29.292Z,12.17
2019-04-30T13:22:56.469Z,12.20
2019-04-30T13:25:32.474Z,13.20
2019-04-30T13:27:55.439Z,12.40
2019-04-30T13:30:24.316Z,11.30
2019-04-30T13:33:06.311Z,13.00
2019-04-30T13:35:33.379Z,12.47
2019-04-30T13:38:09.421Z,13.13
2019-04-30T13:40:45.359Z,12.10
2019-04-30T13:43:12.793Z,12.70
2019-04-30T13:45:39.752Z,12.30
2019-04-30T13:48:08.808Z,12.10
2019-04-30T13:50:35.569Z,10.30
2019-04-30T13:53:02.573Z,12.53
2019-04-30T13:55:42.490Z,12.10
2019-04-30T13:57:58.481Z,12.53
2019-04-30T14:00:27.337Z,12.17
2019-04-30T14:03:02.891Z,12.53
2019-04-30T14:05:29.997Z,12.70
2019-04-30T14:08:10.383Z,13.07
2019-04-30T14:10:40.275Z,12.87
2019-04-30T14:13:08.668Z,13.67
2019-04-30T14:15:36.342Z,14.00
2019-04-30T14:18:03.488Z,13.80
2019-04-30T14:20:30.450Z,13.80
2019-04-30T14:22:57.669Z,13.10
2019-04-30T14:25:24.675Z,12.30
2019-04-30T14:27:54.472Z,13.60
2019-04-30T14:30:20.651Z,13.57
2019-04-30T14:32:50.602Z,12.40
2019-04-30T14:35:18.641Z,13.33
2019-04-30T14:37:45.520Z,12.93
2019-04-30T14:40:14.455Z,13.50
2019-04-30T14:42:49.050Z,11.73
2019-04-30T14:45:21.837Z,11.60
2019-04-30T14:48:00.926Z,11.90
2019-04-30T14:50:28.591Z,11.63
2019-04-30T14:53:07.510Z,18.70
2019-04-30T14:55:44.084Z,13.03
2019-04-30T14:58:29.375Z,11.73
2019-04-30T15:01:04.643Z,13.37
2019-04-30T15:03:31.857Z,13.17
2019-04-30T15:05:59.040Z,12.83
2019-04-30T15:08:26.041Z,14.03
2019-04-30T15:10:53.042Z,13.13
2019-04-30T15:13:20.057Z,12.87
2019-04-30T15:15:49.078Z,13.03
2019-04-30T15:18:15.960Z,14.00
2019-04-30T15:20:42.923Z,13.67
2019-04-30T15:23:28.103Z,15.70
2019-04-30T15:25:55.198Z,13.00
2019-04-30T15:28:22.134Z,14.47
2019-04-30T15:30:49.344Z,14.40
2019-04-30T15:33:23.513Z,13.47
2019-04-30T15:35:50.632Z,14.03
2019-04-30T15:38:19.268Z,13.77
2019-04-30T15:40:46.419Z,13.77
2019-04-30T15:43:13.388Z,15.23
2019-04-30T15:45:40.349Z,14.17
2019-04-30T15:48:08.542Z,15.37
2019-04-30T15:50:35.738Z,13.63
2019-04-30T15:53:03.300Z,14.60
2019-04-30T15:55:30.885Z,14.07
2019-04-30T15:58:17.444Z,16.20
2019-04-30T16:00:44.661Z,16.10
2019-04-30T16:03:17.577Z,14.97
2019-04-30T16:05:47.131Z,15.03
2019-04-30T16:08:33.836Z,14.80
2019-04-30T16:14:13.928Z,13.80
2019-04-30T16:16:44.110Z,15.30
2019-04-30T16:19:11.065Z,16.23
2019-04-30T16:21:38.063Z,15.73
2019-04-30T16:24:05.006Z,15.60
2019-04-30T16:26:32.053Z,14.30
2019-04-30T16:28:59.022Z,16.30
2019-04-30T16:31:26.024Z,16.00
2019-04-30T16:33:52.983Z,15.10
2019-04-30T16:36:19.989Z,15.70
2019-04-30T16:38:48.623Z,15.20
2019-04-30T16:43:56.033Z,15.63
2019-04-30T16:46:22.982Z,14.80
2019-04-30T16:48:49.902Z,15.20
2019-04-30T16:51:18.788Z,14.50
2019-04-30T16:53:45.686Z,13.60
2019-04-30T16:56:12.626Z,15.03
2019-04-30T16:58:57.680Z,14.50
2019-04-30T17:01:24.744Z,13.50
2019-04-30T17:03:54.329Z,14.10
2019-04-30T17:06:23.321Z,14.87
2019-04-30T17:09:01.352Z,13.90
2019-04-30T17:11:49.006Z,14.20
2019-04-30T17:14:16.876Z,15.30
2019-04-30T17:16:43.849Z,15.00
2019-04-30T17:19:10.786Z,15.20
2019-04-30T17:21:37.815Z,14.70
2019-04-30T17:24:04.731Z,15.17
2019-04-30T17:26:31.726Z,14.30
2019-04-30T17:28:59.840Z,16.47
2019-04-30T17:31:26.931Z,15.43
2019-04-30T17:33:53.861Z,16.47
2019-04-30T17:36:20.854Z,13.63
2019-04-30T17:38:47.772Z,13.93
2019-04-30T17:41:14.726Z,12.97
2019-04-30T17:43:41.913Z,11.97
2019-04-30T17:46:08.842Z,13.73
2019-04-30T17:48:35.777Z,13.37
2019-04-30T17:51:03.305Z,13.93
2019-04-30T17:53:31.242Z,12.90
2019-04-30T17:55:58.200Z,13.23
2019-04-30T17:58:25.755Z,14.57
2019-04-30T18:00:55.082Z,15.70
2019-04-30T18:03:22.009Z,14.63
2019-04-30T18:05:49.276Z,14.70
2019-04-30T18:08:16.634Z,15.03
2019-04-30T18:10:43.561Z,16.03
2019-04-30T18:13:10.717Z,15.67
2019-04-30T18:15:37.658Z,16.50
2019-04-30T18:18:24.987Z,16.30
2019-04-30T18:20:59.362Z,16.47
2019-04-30T18:23:37.498Z,17.90
2019-04-30T18:26:09.089Z,15.10
2019-04-30T18:28:36.015Z,17.67
2019-04-30T18:31:03.469Z,17.20
2019-04-30T18:33:30.404Z,19.13
2019-04-30T18:35:57.359Z,18.37
2019-04-30T18:38:24.319Z,18.83
2019-04-30T18:40:51.264Z,18.47
2019-04-30T18:43:20.366Z,18.30
2019-04-30T18:45:49.322Z,18.43
2019-04-30T18:48:15.948Z,20.40
2019-04-30T18:50:42.858Z,21.57
2019-04-30T18:53:15.179Z,19.90
2019-04-30T18:55:42.111Z,19.40
2019-04-30T18:58:09.086Z,21.87
2019-04-30T19:00:39.893Z,26.20
2019-04-30T19:03:08.658Z,26.60
2019-04-30T19:05:36.101Z,26.53
2019-04-30T19:08:10.003Z,25.00
2019-04-30T19:11:03.765Z,23.27
2019-04-30T19:13:50.980Z,21.23
2019-04-30T19:16:40.039Z,18.13
2019-04-30T19:19:12.734Z,19.13
2019-04-30T19:21:40.404Z,18.40
2019-04-30T19:24:08.636Z,18.67
2019-04-30T19:26:35.849Z,17.20
2019-04-30T19:29:03.108Z,18.13
2019-04-30T19:31:30.047Z,18.83
2019-04-30T19:33:58.875Z,17.70
2019-04-30T19:36:34.931Z,20.50
2019-04-30T19:38:54.734Z,21.47
2019-04-30T19:41:21.670Z,21.37
2019-04-30T19:43:50.078Z,20.00
2019-04-30T19:46:18.799Z,20.43
2019-04-30T19:48:45.921Z,19.00
2019-04-30T19:51:13.963Z,19.97
2019-04-30T19:53:40.978Z,20.70
2019-04-30T19:56:07.919Z,21.20
2019-04-30T19:58:52.292Z,19.17
2019-04-30T20:01:03.826Z,19.70
2019-04-30T20:03:30.780Z,20.53
2019-04-30T20:05:58.610Z,19.83
2019-04-30T20:08:25.716Z,17.23
2019-04-30T20:10:52.648Z,19.43
2019-04-30T20:13:33.104Z,18.70
2019-04-30T20:15:49.377Z,19.33
2019-04-30T20:18:16.538Z,20.40
2019-04-30T20:20:45.975Z,18.40
2019-04-30T20:23:12.932Z,19.23
2019-04-30T20:25:39.875Z,20.10
2019-04-30T20:28:06.843Z,20.30
2019-04-30T20:30:33.801Z,19.93
2019-04-30T20:33:02.978Z,21.13
2019-04-30T20:35:29.942Z,18.70
2019-04-30T20:38:31.633Z,19.07
2019-04-30T20:41:02.802Z,18.37
2019-04-30T20:43:28.556Z,18.47
2019-04-30T20:45:55.670Z,19.10
2019-04-30T20:48:22.697Z,20.60
2019-04-30T20:50:49.622Z,19.97
2019-04-30T20:53:16.594Z,19.50
2019-04-30T20:55:43.531Z,19.87
2019-04-30T20:58:10.483Z,19.70
2019-04-30T21:00:37.408Z,18.77
2019-04-30T21:03:04.470Z,19.70
2019-04-30T21:05:31.493Z,19.30
2019-04-30T21:07:58.517Z,19.80
2019-04-30T21:10:25.442Z,20.40
2019-04-30T21:12:52.406Z,18.73
2019-04-30T21:15:19.723Z,20.90
2019-04-30T21:17:48.375Z,21.63
2019-04-30T21:20:15.584Z,20.97
2019-04-30T21:22:42.510Z,20.57
2019-04-30T21:25:12.328Z,20.63
2019-04-30T21:27:40.144Z,21.10
2019-04-30T21:30:07.466Z,20.93
2019-04-30T21:32:52.737Z,19.90
2019-04-30T21:35:37.730Z,20.70
2019-04-30T21:38:04.693Z,22.20
2019-04-30T21:40:31.654Z,20.70
2019-04-30T21:42:58.587Z,23.03
2019-04-30T21:45:25.571Z,24.17
2019-04-30T21:47:56.455Z,21.63
2019-04-30T21:50:21.363Z,24.77
2019-04-30T21:52:49.565Z,24.70
2019-04-30T21:55:16.546Z,25.30
2019-04-30T21:57:43.481Z,25.40
2019-04-30T22:00:13.039Z,25.20
2019-04-30T22:02:40.540Z,26.90
2019-04-30T22:05:07.604Z,26.83
2019-04-30T22:07:34.516Z,26.83
2019-04-30T22:10:01.495Z,26.40
2019-04-30T22:12:30.965Z,26.20
2019-04-30T22:14:57.241Z,26.00
2019-04-30T22:17:24.171Z,25.77
2019-04-30T22:19:51.660Z,25.40
2019-04-30T22:22:19.331Z,24.07
2019-04-30T22:24:46.392Z,25.20
2019-04-30T22:27:13.311Z,25.13
2019-04-30T22:29:42.279Z,25.60
2019-04-30T22:32:09.407Z,26.30
2019-04-30T22:34:36.374Z,27.40
2019-04-30T22:37:03.585Z,25.63
2019-04-30T22:39:59.364Z,28.30
2019-04-30T22:42:31.210Z,28.10
2019-04-30T22:44:58.822Z,26.23
2019-04-30T22:47:25.738Z,26.50
2019-04-30T22:49:52.690Z,28.00
2019-04-30T22:52:21.888Z,26.90
2019-04-30T22:54:48.456Z,28.20
2019-04-30T22:57:15.367Z,26.10
2019-04-30T22:59:49.849Z,28.67
2019-04-30T23:02:21.399Z,26.83
2019-04-30T23:04:48.620Z,27.33
2019-04-30T23:07:15.534Z,26.77
2019-04-30T23:09:42.479Z,26.70
2019-04-30T23:12:09.498Z,27.50
2019-04-30T23:14:36.447Z,27.50
2019-04-30T23:17:03.665Z,26.07
2019-04-30T23:19:30.651Z,25.47
2019-04-30T23:21:57.594Z,25.07
2019-04-30T23:24:24.514Z,25.97
2019-04-30T23:26:51.484Z,25.40
2019-04-30T23:29:18.401Z,27.87
2019-04-30T23:31:45.371Z,25.90
2019-04-30T23:34:18.047Z,29.40
2019-04-30T23:36:41.165Z,28.80
2019-04-30T23:39:09.390Z,28.80
2019-04-30T23:41:36.353Z,28.73
2019-04-30T23:44:03.416Z,30.10
2019-04-30T23:46:30.381Z,28.60
2019-04-30T23:48:57.345Z,30.30
2019-04-30T23:51:24.312Z,32.10
2019-04-30T23:53:51.363Z,31.20
2019-04-30T23:56:21.597Z,30.13
2019-04-30T23:58:48.538Z,30.10
